High wind

Not for real navigation. The accuracy of this data is not assured See disclaimer for more information



ICAO NAME COUNTRY WIND Kt GUST Kt VIS m TEMP/DEW C BARO METAR
KMWN Mount Washington NH United States 63 72 32767 -13/-22 29.92 KMWN 190653Z 32063G72KT 130SM SCT/// SCT050 SCT070 SCT100 BKN150 M13/M22 RMK ACSL NOOP E-S TPS LWR S
ENGC Gullfax Platform Norway 52 0 9999 7/4 29.56 ENGC 190750Z 17052KT 9999 -RA OVC015 07/04 Q1001 W08/S7
ENSF 51 0 9999 8/4 29.53 ENSF 190750Z AUTO 15051KT //// OVC015/// 08/04 Q1000 W///S7
ENSE 49 0 9999 8/5 29.56 ENSE 190750Z AUTO 15049KT 9999NDV -DZ FEW017/// SCT026/// BKN033/// 08/05 Q1001 W///S7
ENFB Oslo / Fornebu Norway 46 0 6000 8/5 29.56 ENFB 190750Z AUTO 14046KT 6000NDV -RA BKN014/// 08/05 Q1001 W///S7

Show more